Time;durP1;ratioP1;P1;durP2;ratioP2;P2;SDS_P1;SDS_P2;PMS_P1;PMS_P2;Temp;Humidity;BMP_temperature;BMP_pressure;BME280_temperature;BME280_humidity;BME280_pressure;Samples;Min_cycle;Max_cycle;Signal;HPM_P1;HPM_P2
2023/06/11 00:02:07;;;;;;;12.05;7.72;;;18.40;99.90;;;;;;4933080;29;20331;-79
2023/06/11 00:04:34;;;;;;;12.75;7.05;;;18.30;99.90;;;;;;4925325;29;20040;-79
2023/06/11 00:07:01;;;;;;;10.80;7.88;;;18.30;99.90;;;;;;4904485;29;20043;-79
2023/06/11 00:09:26;;;;;;;11.95;8.25;;;18.30;99.90;;;;;;4916566;29;20044;-79
2023/06/11 00:11:53;;;;;;;9.32;7.05;;;18.20;99.90;;;;;;4906162;29;20052;-79
2023/06/11 00:14:22;;;;;;;8.30;6.95;;;18.20;99.90;;;;;;4935384;29;20043;-79
2023/06/11 00:16:48;;;;;;;10.90;6.95;;;18.10;99.90;;;;;;4926640;29;20049;-79
2023/06/11 00:19:14;;;;;;;9.80;7.28;;;18.20;99.90;;;;;;4911412;29;20048;-79
2023/06/11 00:21:46;;;;;;;11.95;7.50;;;18.10;99.90;;;;;;4905940;29;20508;-79
2023/06/11 00:24:13;;;;;;;11.35;7.78;;;18.00;99.90;;;;;;4922162;29;20359;-79
2023/06/11 00:26:40;;;;;;;17.35;8.18;;;18.10;99.90;;;;;;4901938;29;20414;-79
2023/06/11 00:29:06;;;;;;;13.45;7.07;;;18.00;99.90;;;;;;4908425;29;20049;-79
2023/06/11 00:31:32;;;;;;;9.43;7.20;;;18.00;99.90;;;;;;4938013;29;20048;-79
2023/06/11 00:33:59;;;;;;;10.32;7.65;;;18.10;99.90;;;;;;4932518;29;20106;-79
2023/06/11 00:36:26;;;;;;;12.77;7.35;;;18.00;99.90;;;;;;4910814;29;20067;-79
2023/06/11 00:38:55;;;;;;;11.23;7.67;;;18.00;99.90;;;;;;4902866;29;20051;-79
2023/06/11 00:41:24;;;;;;;12.52;7.35;;;17.90;99.90;;;;;;4925753;29;20083;-79
2023/06/11 00:43:54;;;;;;;10.77;7.25;;;17.90;99.90;;;;;;4886160;29;20058;-79
2023/06/11 00:46:21;;;;;;;11.43;7.40;;;17.90;99.90;;;;;;4918625;29;20740;-78
2023/06/11 00:48:50;;;;;;;11.52;7.38;;;17.80;99.90;;;;;;4910343;29;20107;-78
2023/06/11 00:51:22;;;;;;;11.43;7.95;;;17.80;99.90;;;;;;4906549;29;20048;-79
2023/06/11 00:53:47;;;;;;;11.98;7.72;;;17.70;99.90;;;;;;4941322;29;20050;-80
2023/06/11 00:56:17;;;;;;;14.98;7.40;;;17.70;99.90;;;;;;4908492;29;20436;-80
2023/06/11 00:58:45;;;;;;;14.68;7.15;;;17.70;99.90;;;;;;4916476;29;20036;-80
2023/06/11 01:01:11;;;;;;;10.10;7.03;;;17.70;99.90;;;;;;4924473;29;20059;-79
2023/06/11 01:03:37;;;;;;;10.40;6.75;;;17.70;99.90;;;;;;4917405;29;20048;-79
2023/06/11 01:06:06;;;;;;;12.88;7.10;;;17.70;99.90;;;;;;4915879;29;20678;-79
2023/06/11 01:08:35;;;;;;;13.52;7.07;;;17.70;99.90;;;;;;4905242;29;20111;-79
2023/06/11 01:11:01;;;;;;;;;;;17.60;99.90;;;;;;4930714;29;20052;-79
2023/06/11 01:13:30;;;;;;;10.23;7.47;;;17.50;99.90;;;;;;4936500;29;19911;-79
2023/06/11 01:16:00;;;;;;;11.23;7.25;;;17.50;99.90;;;;;;4935391;29;20071;-79
2023/06/11 01:18:28;;;;;;;13.27;6.93;;;17.50;99.90;;;;;;4915731;29;20123;-79
2023/06/11 01:21:13;;;;;;;9.55;6.68;;;17.50;99.90;;;;;;4903351;29;20044;-79
2023/06/11 01:23:41;;;;;;;13.90;6.82;;;17.50;99.90;;;;;;4935121;29;20068;-79
2023/06/11 01:26:29;;;;;;;10.33;6.90;;;17.50;99.90;;;;;;4932222;29;20052;-79
2023/06/11 01:28:55;;;;;;;10.77;6.47;;;17.50;99.90;;;;;;4919714;29;20783;-79
2023/06/11 01:31:20;;;;;;;11.23;6.47;;;17.50;99.90;;;;;;4907227;29;20052;-78
2023/06/11 01:33:46;;;;;;;12.15;7.28;;;17.40;99.90;;;;;;4904935;29;20052;-78
2023/06/11 01:36:14;;;;;;;11.98;6.90;;;17.40;99.90;;;;;;4920411;29;20055;-78
2023/06/11 01:38:44;;;;;;;12.73;7.20;;;17.40;99.90;;;;;;4921085;29;20040;-79
2023/06/11 01:41:13;;;;;;;10.18;6.85;;;17.40;99.90;;;;;;4896743;29;20058;-79
2023/06/11 01:43:39;;;;;;;11.40;6.45;;;17.40;99.90;;;;;;4934955;29;20092;-79
2023/06/11 01:46:05;;;;;;;15.48;6.68;;;17.30;99.90;;;;;;4937282;29;20092;-79
2023/06/11 01:48:31;;;;;;;12.38;6.40;;;17.30;99.90;;;;;;4914505;29;20071;-79
2023/06/11 01:50:57;;;;;;;11.23;6.45;;;17.20;99.90;;;;;;4923117;29;20055;-79
2023/06/11 01:53:23;;;;;;;10.77;6.43;;;17.10;99.90;;;;;;4932596;29;20621;-79
2023/06/11 01:55:49;;;;;;;12.93;6.95;;;17.20;99.90;;;;;;4916807;29;20048;-79
2023/06/11 01:58:16;;;;;;;10.98;6.40;;;17.10;99.90;;;;;;4909172;29;20040;-78
2023/06/11 02:00:42;;;;;;;11.63;6.80;;;17.10;99.90;;;;;;4913651;29;20044;-78
2023/06/11 02:03:08;;;;;;;13.27;6.35;;;17.10;99.90;;;;;;4895035;29;20115;-78
2023/06/11 02:05:35;;;;;;;9.20;6.32;;;17.10;99.90;;;;;;4902498;29;20057;-79
2023/06/11 02:08:01;;;;;;;12.77;7.45;;;17.10;99.90;;;;;;4928013;29;20044;-79
2023/06/11 02:10:26;;;;;;;9.27;6.15;;;17.10;99.90;;;;;;4917251;29;20381;-79
2023/06/11 02:12:52;;;;;;;10.63;5.90;;;17.10;99.90;;;;;;4916913;29;20051;-79
2023/06/11 02:15:18;;;;;;;10.90;6.22;;;17.10;99.90;;;;;;4908586;29;20072;-79
2023/06/11 02:17:45;;;;;;;19.60;6.47;;;17.00;99.90;;;;;;4897855;29;20040;-79
2023/06/11 02:20:11;;;;;;;12.25;5.95;;;17.00;99.90;;;;;;4919290;29;21052;-79
2023/06/11 02:22:38;;;;;;;11.73;6.22;;;17.00;99.90;;;;;;4918726;29;20040;-79
2023/06/11 02:25:05;;;;;;;8.80;6.00;;;17.00;99.90;;;;;;4912477;29;20048;-79
2023/06/11 02:27:30;;;;;;;12.73;5.97;;;17.00;99.90;;;;;;4909901;29;20461;-79
2023/06/11 02:29:56;;;;;;;9.75;5.65;;;16.90;99.90;;;;;;4891865;29;20063;-79
2023/06/11 02:32:22;;;;;;;12.07;6.22;;;17.00;99.90;;;;;;4940292;29;20370;-79
2023/06/11 02:34:48;;;;;;;10.82;5.80;;;16.90;99.90;;;;;;4893767;29;20514;-79
2023/06/11 02:37:13;;;;;;;7.95;5.65;;;16.90;99.90;;;;;;4912047;29;20712;-79
2023/06/11 02:39:39;;;;;;;14.90;6.35;;;16.90;99.90;;;;;;4887768;29;20039;-79
2023/06/11 02:42:05;;;;;;;9.80;6.45;;;16.80;99.90;;;;;;4894923;29;20119;-80
2023/06/11 02:44:31;;;;;;;15.35;6.57;;;16.80;99.90;;;;;;4929436;29;20049;-80
2023/06/11 02:46:57;;;;;;;10.57;6.32;;;16.80;99.90;;;;;;4927266;29;20054;-80
2023/06/11 02:49:23;;;;;;;10.90;5.68;;;16.80;99.90;;;;;;4939867;29;20044;-80
2023/06/11 02:51:48;;;;;;;12.80;5.93;;;16.80;99.90;;;;;;4906021;29;20052;-80
2023/06/11 02:54:14;;;;;;;9.98;6.43;;;16.80;99.90;;;;;;4931976;29;20095;-80
2023/06/11 02:56:40;;;;;;;11.30;6.28;;;16.70;99.90;;;;;;4895367;29;20083;-80
2023/06/11 02:59:06;;;;;;;11.48;6.63;;;16.70;99.90;;;;;;4917594;29;20044;-79
2023/06/11 03:01:32;;;;;;;14.45;6.00;;;16.70;99.90;;;;;;4934227;29;20063;-79
2023/06/11 03:03:58;;;;;;;13.23;5.88;;;16.70;99.90;;;;;;4883193;29;20052;-79
2023/06/11 03:06:23;;;;;;;11.68;5.82;;;16.70;99.90;;;;;;4936656;29;20054;-79
2023/06/11 03:08:50;;;;;;;8.82;5.03;;;16.60;99.90;;;;;;4948932;28;20056;-79
2023/06/11 03:11:15;;;;;;;10.63;5.82;;;16.60;99.90;;;;;;4934211;29;20063;-79
2023/06/11 03:13:41;;;;;;;10.88;5.28;;;16.60;99.90;;;;;;4909029;29;20040;-79
2023/06/11 03:16:07;;;;;;;9.38;5.57;;;16.60;99.90;;;;;;4918155;29;20513;-79
2023/06/11 03:18:33;;;;;;;12.43;5.93;;;16.60;99.90;;;;;;4933975;29;20036;-79
2023/06/11 03:20:58;;;;;;;10.00;5.22;;;16.60;99.90;;;;;;4943111;29;20350;-79
2023/06/11 03:23:24;;;;;;;13.52;6.63;;;16.60;99.90;;;;;;4905345;29;20048;-79
2023/06/11 03:25:50;;;;;;;11.00;5.57;;;16.50;99.90;;;;;;4939084;29;20163;-80
2023/06/11 03:28:16;;;;;;;9.68;5.47;;;16.50;99.90;;;;;;4901592;29;20052;-79
2023/06/11 03:30:41;;;;;;;8.93;5.40;;;16.50;99.90;;;;;;4908750;29;20051;-79
2023/06/11 03:33:07;;;;;;;12.43;5.60;;;16.50;99.90;;;;;;4906567;29;20043;-79
2023/06/11 03:35:33;;;;;;;7.40;5.40;;;16.50;99.90;;;;;;4909981;29;20104;-79
2023/06/11 03:37:59;;;;;;;10.02;5.22;;;16.50;99.90;;;;;;4915701;29;20036;-80
2023/06/11 03:40:25;;;;;;;10.27;5.32;;;16.50;99.90;;;;;;4947498;28;20586;-79
2023/06/11 03:42:50;;;;;;;10.57;5.35;;;16.50;99.90;;;;;;4891520;29;20040;-79
2023/06/11 03:45:16;;;;;;;11.25;5.10;;;16.50;99.90;;;;;;4897845;29;20043;-79
2023/06/11 03:47:42;;;;;;;10.23;5.57;;;16.50;99.90;;;;;;4895900;29;20103;-79
2023/06/11 03:50:08;;;;;;;9.48;5.55;;;16.50;99.90;;;;;;4907146;29;20045;-79
2023/06/11 03:52:34;;;;;;;13.02;5.05;;;16.40;99.90;;;;;;4894345;29;20044;-79
2023/06/11 03:54:59;;;;;;;12.40;5.25;;;16.40;99.90;;;;;;4908072;29;20549;-79
2023/06/11 03:57:25;;;;;;;12.10;5.57;;;16.40;99.90;;;;;;4914366;29;20059;-79
2023/06/11 03:59:51;;;;;;;8.93;5.07;;;16.50;99.90;;;;;;4919973;29;20072;-79
2023/06/11 04:02:18;;;;;;;9.15;5.57;;;16.40;99.90;;;;;;4919776;29;20059;-79
2023/06/11 04:04:44;;;;;;;9.97;5.80;;;16.40;99.90;;;;;;4912602;28;20052;-78
2023/06/11 04:07:11;;;;;;;8.88;5.43;;;16.50;99.90;;;;;;4946611;29;20048;-79
2023/06/11 04:09:37;;;;;;;9.32;5.47;;;16.50;99.90;;;;;;4912976;29;20585;-79
2023/06/11 04:12:03;;;;;;;8.80;5.30;;;16.50;99.90;;;;;;4899757;29;20048;-78
2023/06/11 04:14:29;;;;;;;10.43;5.13;;;16.50;99.90;;;;;;4918316;29;20049;-79
2023/06/11 04:16:55;;;;;;;6.80;5.05;;;16.50;99.90;;;;;;4931902;29;20111;-79
2023/06/11 04:19:21;;;;;;;10.93;5.43;;;16.50;99.90;;;;;;4929120;29;20040;-78
2023/06/11 04:21:48;;;;;;;8.82;5.15;;;16.50;99.90;;;;;;4949223;29;20044;-77
2023/06/11 04:24:13;;;;;;;10.00;5.38;;;16.60;99.90;;;;;;4924421;29;20056;-78
2023/06/11 04:26:40;;;;;;;9.60;5.80;;;16.60;99.90;;;;;;4924435;29;20370;-78
2023/06/11 04:29:08;;;;;;;14.82;5.55;;;16.60;99.90;;;;;;4924558;29;20055;-78
2023/06/11 04:31:33;;;;;;;10.60;5.55;;;16.70;99.90;;;;;;4909718;29;20047;-78
2023/06/11 04:34:06;;;;;;;10.95;5.55;;;16.70;99.90;;;;;;4921268;29;20782;-78
2023/06/11 04:36:32;;;;;;;11.10;5.68;;;16.70;99.90;;;;;;4920525;29;20044;-78
2023/06/11 04:39:01;;;;;;;11.43;5.82;;;16.70;99.90;;;;;;4928534;29;20040;-78
2023/06/11 04:41:29;;;;;;;8.52;5.07;;;16.70;99.90;;;;;;4935091;29;20139;-79
2023/06/11 04:43:55;;;;;;;12.95;6.03;;;16.70;99.90;;;;;;4920201;29;20048;-78
2023/06/11 04:46:21;;;;;;;10.77;5.43;;;16.80;99.90;;;;;;4936831;29;20381;-78
2023/06/11 04:48:50;;;;;;;8.93;5.47;;;16.80;99.90;;;;;;4912834;29;20047;-77
2023/06/11 04:51:17;;;;;;;13.68;5.53;;;16.80;99.90;;;;;;4912179;29;20043;-78
2023/06/11 04:53:45;;;;;;;12.82;5.82;;;16.80;99.90;;;;;;4936313;29;20119;-78
2023/06/11 04:56:11;;;;;;;9.73;4.90;;;16.90;99.90;;;;;;4917937;29;20454;-78
2023/06/11 04:58:36;;;;;;;12.25;6.60;;;16.90;99.90;;;;;;4937960;29;20346;-79
2023/06/11 05:01:07;;;;;;;8.32;5.95;;;17.00;99.90;;;;;;4936714;29;20052;-79
2023/06/11 05:03:37;;;;;;;8.18;5.38;;;17.00;99.90;;;;;;4921312;29;20043;-78
2023/06/11 05:06:04;;;;;;;8.45;5.57;;;17.00;99.90;;;;;;4905452;29;20373;-78
2023/06/11 05:08:30;;;;;;;13.80;5.65;;;17.10;99.90;;;;;;4928247;29;20044;-78
2023/06/11 05:10:57;;;;;;;11.32;5.43;;;17.10;99.90;;;;;;4919046;29;20058;-79
2023/06/11 05:13:25;;;;;;;12.52;5.20;;;17.20;99.90;;;;;;4926454;29;20377;-79
2023/06/11 05:15:52;;;;;;;13.30;6.55;;;17.20;99.90;;;;;;4933757;29;20471;-80
2023/06/11 05:18:18;;;;;;;10.30;5.57;;;17.30;99.90;;;;;;4931270;29;20075;-79
2023/06/11 05:20:45;;;;;;;9.85;5.10;;;17.30;99.90;;;;;;4929523;29;20072;-79
2023/06/11 05:23:11;;;;;;;7.63;5.30;;;17.30;99.90;;;;;;4907526;29;20131;-78
2023/06/11 05:25:46;;;;;;;11.52;5.63;;;17.40;99.90;;;;;;4905217;29;20082;-79
2023/06/11 05:28:12;;;;;;;7.82;5.38;;;17.40;99.90;;;;;;4894874;29;20083;-79
2023/06/11 05:30:39;;;;;;;9.98;5.10;;;17.50;99.90;;;;;;4919773;29;20108;-79
2023/06/11 05:33:06;;;;;;;13.18;5.15;;;17.50;99.90;;;;;;4903449;29;20071;-79
2023/06/11 05:35:32;;;;;;;8.43;5.53;;;17.50;99.90;;;;;;4906398;29;20041;-79
2023/06/11 05:37:59;;;;;;;10.13;5.30;;;17.60;99.90;;;;;;4908303;29;20477;-79
2023/06/11 05:40:24;;;;;;;10.02;5.00;;;17.70;99.90;;;;;;4920492;29;20052;-79
2023/06/11 05:42:50;;;;;;;13.50;5.65;;;17.70;99.90;;;;;;4940387;29;20050;-80
2023/06/11 05:45:16;;;;;;;7.97;5.28;;;17.70;99.90;;;;;;4916689;29;20135;-79
2023/06/11 05:47:42;;;;;;;8.38;5.18;;;17.80;99.90;;;;;;4915451;29;20052;-80
2023/06/11 05:50:08;;;;;;;8.75;5.90;;;17.80;99.90;;;;;;4890946;29;20048;-80
2023/06/11 05:52:34;;;;;;;9.70;5.15;;;17.80;99.90;;;;;;4906955;29;20143;-80
2023/06/11 05:54:59;;;;;;;9.25;5.20;;;17.90;99.90;;;;;;4913998;29;20417;-80
2023/06/11 05:57:25;;;;;;;10.10;5.50;;;18.00;99.90;;;;;;4912416;29;20134;-80
2023/06/11 05:59:51;;;;;;;11.75;5.90;;;18.00;99.90;;;;;;4913891;29;20127;-81
2023/06/11 06:02:17;;;;;;;10.50;5.97;;;18.00;99.90;;;;;;4922370;29;20123;-81
2023/06/11 06:04:46;;;;;;;19.17;5.78;;;18.10;99.90;;;;;;4913580;29;20040;-82
2023/06/11 06:07:12;;;;;;;10.02;5.18;;;18.10;99.90;;;;;;4926280;29;20342;-81
2023/06/11 06:09:39;;;;;;;12.63;5.97;;;18.20;99.90;;;;;;4909279;29;20053;-81
2023/06/11 06:12:06;;;;;;;8.55;5.40;;;18.20;99.90;;;;;;4917139;29;20108;-81
2023/06/11 06:14:32;;;;;;;10.88;5.90;;;18.20;99.90;;;;;;4943584;29;20048;-81
2023/06/11 06:16:58;;;;;;;11.32;5.88;;;18.30;99.90;;;;;;4921588;29;20055;-82
2023/06/11 06:19:24;;;;;;;9.00;5.40;;;18.30;99.90;;;;;;4929356;29;20044;-81
2023/06/11 06:21:50;;;;;;;8.20;5.70;;;18.40;99.90;;;;;;4932503;29;20052;-82
2023/06/11 06:24:15;;;;;;;9.57;5.38;;;18.50;99.90;;;;;;4905571;29;20044;-82
2023/06/11 06:26:41;;;;;;;10.23;5.22;;;18.50;99.90;;;;;;4913576;29;20466;-81
2023/06/11 06:29:08;;;;;;;11.48;5.53;;;18.60;99.90;;;;;;4925474;29;20040;-82
2023/06/11 06:31:36;;;;;;;12.65;6.28;;;18.60;99.90;;;;;;4915818;29;20086;-81
2023/06/11 06:34:02;;;;;;;8.88;5.38;;;18.70;99.90;;;;;;4925187;29;20036;-82
2023/06/11 06:36:28;;;;;;;9.80;5.38;;;18.70;99.90;;;;;;4892331;29;20047;-82
2023/06/11 06:38:54;;;;;;;7.55;5.38;;;18.70;99.90;;;;;;4906542;29;20104;-81
2023/06/11 06:41:20;;;;;;;9.60;5.78;;;18.80;99.90;;;;;;4912590;29;20044;-82
2023/06/11 06:43:46;;;;;;;8.75;5.22;;;18.90;99.90;;;;;;4904586;29;20739;-81
2023/06/11 06:46:11;;;;;;;14.90;5.90;;;18.90;99.90;;;;;;4908720;29;20048;-81
2023/06/11 06:48:37;;;;;;;11.75;5.80;;;19.00;99.90;;;;;;4903746;29;20449;-86
2023/06/11 06:51:04;;;;;;;8.80;5.63;;;19.10;99.90;;;;;;4888305;29;20052;-88
2023/06/11 06:53:30;;;;;;;7.90;5.43;;;19.10;99.90;;;;;;4892326;29;20121;-87
2023/06/11 06:55:58;;;;;;;8.25;5.50;;;19.20;99.90;;;;;;4934158;29;20425;-87
2023/06/11 06:58:29;;;;;;;;;;;19.20;99.90;;;;;;4896067;29;20040;-86
2023/06/11 07:00:55;;;;;;;8.55;5.25;;;19.30;99.80;;;;;;4948447;29;19939;-87
2023/06/11 07:03:21;;;;;;;6.38;5.18;;;19.30;99.80;;;;;;4891116;29;20056;-87
2023/06/11 07:05:47;;;;;;;11.15;5.18;;;19.40;99.60;;;;;;4928507;29;20136;-86
2023/06/11 07:08:13;;;;;;;12.38;5.75;;;19.50;99.50;;;;;;4907078;29;20067;-86
2023/06/11 07:10:41;;;;;;;10.23;5.32;;;19.60;99.10;;;;;;4936787;29;20373;-86
2023/06/11 07:13:10;;;;;;;9.95;5.68;;;19.70;99.10;;;;;;4929872;29;20040;-87
2023/06/11 07:15:36;;;;;;;9.73;4.90;;;19.70;98.80;;;;;;4925088;29;20701;-88
2023/06/11 07:18:02;;;;;;;8.90;4.47;;;19.80;98.90;;;;;;4905084;29;20162;-87
2023/06/11 07:20:28;;;;;;;8.18;5.18;;;19.80;98.60;;;;;;4918350;29;20056;-87
2023/06/11 07:22:54;;;;;;;9.70;5.60;;;19.90;98.60;;;;;;4890419;29;20047;-85
2023/06/11 07:25:19;;;;;;;9.00;5.15;;;19.90;98.60;;;;;;4904210;29;20055;-83
2023/06/11 07:27:54;;;;;;;8.18;5.72;;;20.00;98.30;;;;;;4902725;29;20044;-82
2023/06/11 07:30:20;;;;;;;7.82;5.00;;;20.10;98.50;;;;;;4935634;29;20050;-84
2023/06/11 07:32:46;;;;;;;7.20;4.50;;;20.20;98.00;;;;;;4914923;29;20135;-84
2023/06/11 07:35:11;;;;;;;8.55;5.15;;;20.20;97.70;;;;;;4881668;29;20384;-83
2023/06/11 07:37:37;;;;;;;7.55;5.20;;;20.30;97.80;;;;;;4928019;29;20058;-84
2023/06/11 07:40:06;;;;;;;9.48;5.13;;;20.40;97.60;;;;;;4934827;29;20522;-84
2023/06/11 07:42:32;;;;;;;9.15;4.82;;;20.40;97.10;;;;;;4893077;29;20082;-84
2023/06/11 07:44:57;;;;;;;11.45;4.97;;;20.50;97.10;;;;;;4903869;29;20071;-84
2023/06/11 07:47:23;;;;;;;7.93;4.75;;;20.50;96.90;;;;;;4892937;29;20048;-85
2023/06/11 07:49:49;;;;;;;10.57;5.43;;;20.60;96.70;;;;;;4905761;29;20050;-86
2023/06/11 07:52:21;;;;;;;8.38;4.50;;;20.60;96.80;;;;;;4903103;29;20079;-84
2023/06/11 07:54:47;;;;;;;11.43;5.18;;;20.70;96.70;;;;;;4910411;29;20056;-86
2023/06/11 07:57:13;;;;;;;13.60;4.65;;;20.70;96.00;;;;;;4915115;29;20140;-84
2023/06/11 07:59:40;;;;;;;6.60;4.60;;;20.80;95.70;;;;;;4931000;29;20068;-86
2023/06/11 08:02:07;;;;;;;11.82;4.65;;;20.90;96.00;;;;;;4939062;29;20402;-85
2023/06/11 08:04:33;;;;;;;8.90;4.75;;;21.00;95.90;;;;;;4936148;29;20131;-85
2023/06/11 08:06:59;;;;;;;11.38;4.72;;;21.00;95.00;;;;;;4915212;29;20098;-85
2023/06/11 08:09:47;;;;;;;7.82;4.85;;;21.10;95.30;;;;;;4897437;29;20053;-85
2023/06/11 08:12:13;;;;;;;10.13;4.65;;;21.20;94.90;;;;;;4903609;29;20177;-85
2023/06/11 08:14:39;;;;;;;8.88;4.53;;;21.30;94.60;;;;;;4918647;29;20048;-85
2023/06/11 08:17:05;;;;;;;10.70;4.50;;;21.30;94.60;;;;;;4922028;29;20473;-85
2023/06/11 08:19:30;;;;;;;9.70;4.72;;;21.30;95.00;;;;;;4921000;29;20082;-86
2023/06/11 08:21:58;;;;;;;8.10;4.85;;;21.40;94.70;;;;;;4901824;29;20473;-86
2023/06/11 08:24:23;;;;;;;7.82;4.85;;;21.40;94.20;;;;;;4922308;29;20068;-84
2023/06/11 08:26:49;;;;;;;8.02;4.82;;;21.50;93.90;;;;;;4931002;29;20080;-85
2023/06/11 08:29:15;;;;;;;6.93;4.72;;;21.50;94.70;;;;;;4919823;29;20485;-85
2023/06/11 08:31:42;;;;;;;8.43;4.03;;;21.70;94.50;;;;;;4930259;29;20052;-86
2023/06/11 08:34:07;;;;;;;8.50;4.40;;;21.70;94.70;;;;;;4932931;29;20036;-84
2023/06/11 08:36:36;;;;;;;7.68;4.32;;;21.70;94.30;;;;;;4911416;29;20044;-85
2023/06/11 08:39:02;;;;;;;11.18;4.13;;;21.90;94.60;;;;;;4912293;29;20738;-84
2023/06/11 08:41:29;;;;;;;9.68;5.00;;;21.90;94.30;;;;;;4903561;29;20048;-86
2023/06/11 08:43:58;;;;;;;7.70;4.38;;;21.90;93.90;;;;;;4909823;29;20408;-85
2023/06/11 08:46:24;;;;;;;7.95;4.20;;;22.00;93.80;;;;;;4935251;29;20123;-85
2023/06/11 08:49:06;;;;;;;10.10;4.47;;;22.00;93.30;;;;;;4919261;29;20504;-85
2023/06/11 08:51:39;;;;;;;5.85;3.75;;;22.10;93.00;;;;;;4915852;29;20474;-86
2023/06/11 08:54:11;;;;;;;13.07;4.55;;;22.10;93.20;;;;;;4932809;29;20048;-85
2023/06/11 08:56:38;;;;;;;7.75;4.28;;;22.20;92.70;;;;;;4913548;29;20132;-85
2023/06/11 08:59:03;;;;;;;8.30;4.57;;;22.30;92.30;;;;;;4908534;29;20041;-85
2023/06/11 09:01:30;;;;;;;9.73;4.30;;;22.40;91.80;;;;;;4931357;29;20116;-85
2023/06/11 09:03:57;;;;;;;7.72;3.85;;;22.40;91.40;;;;;;4920929;29;20136;-86
2023/06/11 09:06:30;;;;;;;5.97;3.85;;;22.40;92.10;;;;;;4917986;29;20494;-87
2023/06/11 09:09:03;;;;;;;7.95;4.80;;;22.50;91.40;;;;;;4929477;29;20052;-85
2023/06/11 09:11:35;;;;;;;6.40;3.92;;;22.70;90.90;;;;;;4936065;29;20044;-84
2023/06/11 09:14:05;;;;;;;8.70;4.05;;;22.70;91.80;;;;;;4916970;29;20045;-84
2023/06/11 09:16:41;;;;;;;10.80;4.35;;;22.70;91.50;;;;;;4917370;29;20152;-84
2023/06/11 09:19:12;;;;;;;9.05;3.67;;;22.80;91.00;;;;;;4887999;29;20075;-84
2023/06/11 09:21:38;;;;;;;7.47;4.13;;;22.90;90.90;;;;;;4920096;29;20048;-84
2023/06/11 09:24:11;;;;;;;8.45;3.60;;;22.90;90.30;;;;;;4900839;29;20072;-84
2023/06/11 09:26:37;;;;;;;8.00;3.95;;;22.90;91.10;;;;;;4896525;29;20040;-84
2023/06/11 09:29:04;;;;;;;10.02;4.03;;;23.00;90.10;;;;;;4909075;29;20111;-84
2023/06/11 09:31:30;;;;;;;10.45;4.18;;;23.00;88.50;;;;;;4912913;29;20045;-84
2023/06/11 09:34:02;;;;;;;8.20;4.00;;;23.20;86.20;;;;;;4875857;29;20501;-84
2023/06/11 09:36:31;;;;;;;8.38;3.75;;;23.20;85.60;;;;;;4905557;29;20090;-86
2023/06/11 09:38:57;;;;;;;6.65;3.83;;;23.30;85.30;;;;;;4875865;29;20346;-85
2023/06/11 09:41:23;;;;;;;6.75;3.60;;;23.40;83.70;;;;;;4920218;29;20054;-85
2023/06/11 09:43:52;;;;;;;7.90;4.00;;;23.40;83.40;;;;;;4924578;29;20048;-86
2023/06/11 09:46:18;;;;;;;6.93;3.78;;;23.50;80.20;;;;;;4880965;29;20139;-85
2023/06/11 09:48:47;;;;;;;7.13;3.55;;;23.60;79.80;;;;;;4898318;29;20052;-85
2023/06/11 09:51:14;;;;;;;8.40;3.45;;;23.60;80.80;;;;;;4889255;29;20048;-86
2023/06/11 09:53:40;;;;;;;5.25;3.53;;;23.60;80.90;;;;;;4922664;29;20036;-85
2023/06/11 09:56:06;;;;;;;5.90;3.30;;;23.70;80.40;;;;;;4913882;29;20434;-85
2023/06/11 09:58:33;;;;;;;5.90;3.60;;;24.00;80.10;;;;;;4918954;29;20044;-85
2023/06/11 10:01:00;;;;;;;5.78;3.45;;;24.00;79.20;;;;;;4934362;29;20050;-85
2023/06/11 10:03:26;;;;;;;7.67;3.60;;;24.00;77.10;;;;;;4902142;29;20501;-85
2023/06/11 10:06:24;;;;;;;9.43;3.13;;;24.10;75.80;;;;;;4921739;29;20286;-87
2023/06/11 10:08:51;;;;;;;5.32;3.30;;;24.10;75.20;;;;;;4886591;29;20136;-87
2023/06/11 10:11:41;;;;;;;6.90;3.20;;;24.10;76.70;;;;;;4937959;29;20852;-88
2023/06/11 10:14:15;;;;;;;7.85;3.28;;;24.10;77.10;;;;;;4918188;29;20056;-84
2023/06/11 10:16:48;;;;;;;6.38;3.50;;;24.20;80.40;;;;;;4913713;29;20351;-85
2023/06/11 10:19:14;;;;;;;7.38;3.30;;;24.20;79.80;;;;;;4918378;29;20036;-85
2023/06/11 10:21:40;;;;;;;7.55;3.75;;;24.40;75.00;;;;;;4915827;29;20396;-85
2023/06/11 10:24:19;;;;;;;5.40;3.38;;;24.50;77.60;;;;;;4896312;29;20140;-84
2023/06/11 10:26:45;;;;;;;5.50;3.00;;;24.50;77.20;;;;;;4912305;29;20127;-85
2023/06/11 10:29:11;;;;;;;7.03;3.53;;;24.50;78.80;;;;;;4924884;29;20095;-85
2023/06/11 10:31:41;;;;;;;4.80;3.22;;;24.50;74.90;;;;;;4934230;29;20071;-85
2023/06/11 10:34:07;;;;;;;8.40;3.20;;;24.50;75.30;;;;;;4905114;29;20051;-84
2023/06/11 10:36:35;;;;;;;4.82;3.22;;;24.60;72.10;;;;;;4933116;29;20040;-86
2023/06/11 10:39:09;;;;;;;8.35;3.35;;;24.70;72.80;;;;;;4925089;29;20375;-86
2023/06/11 10:41:42;;;;;;;4.50;2.90;;;24.70;71.50;;;;;;4929821;29;20073;-85
2023/06/11 10:44:09;;;;;;;6.70;3.30;;;24.90;70.70;;;;;;4916322;29;20048;-83
2023/06/11 10:46:53;;;;;;;9.65;3.20;;;25.00;69.70;;;;;;4916297;29;20045;-84
2023/06/11 10:49:22;;;;;;;8.82;3.13;;;24.90;72.90;;;;;;4906872;29;20084;-82
2023/06/11 10:51:49;;;;;;;5.97;3.42;;;25.00;70.90;;;;;;4887615;29;20060;-86
2023/06/11 10:54:41;;;;;;;6.85;3.33;;;25.20;72.10;;;;;;4899027;29;20849;-83
2023/06/11 10:57:07;;;;;;;5.35;2.85;;;25.20;65.30;;;;;;4897295;29;20067;-85
2023/06/11 10:59:36;;;;;;;6.75;3.28;;;25.20;68.90;;;;;;4932546;29;20048;-85
2023/06/11 11:02:02;;;;;;;4.65;3.50;;;25.30;69.10;;;;;;4899921;29;20044;-82
2023/06/11 11:04:28;;;;;;;9.32;2.90;;;25.20;73.70;;;;;;4925687;29;20095;-81
2023/06/11 11:07:08;;;;;;;5.75;3.00;;;25.20;71.30;;;;;;4916352;29;20059;-81
2023/06/11 11:09:34;;;;;;;5.95;2.92;;;25.40;69.20;;;;;;4924568;29;20457;-81
2023/06/11 11:12:02;;;;;;;5.13;2.97;;;25.40;73.90;;;;;;4914462;29;20107;-82
2023/06/11 11:14:29;;;;;;;5.25;3.10;;;25.50;70.50;;;;;;4920841;29;20130;-83
2023/06/11 11:17:00;;;;;;;5.28;3.25;;;25.60;67.10;;;;;;4929474;29;20063;-82
2023/06/11 11:19:27;;;;;;;4.18;2.92;;;25.70;66.70;;;;;;4903987;29;20036;-82
2023/06/11 11:21:52;;;;;;;5.78;3.20;;;25.70;65.10;;;;;;4899861;29;20530;-83
2023/06/11 11:24:19;;;;;;;4.18;2.80;;;25.80;66.30;;;;;;4925877;29;20044;-84
2023/06/11 11:26:46;;;;;;;4.93;2.63;;;25.80;67.30;;;;;;4918684;29;20063;-82
2023/06/11 11:29:12;;;;;;;3.97;2.77;;;25.90;67.90;;;;;;4902111;29;20048;-84
2023/06/11 11:31:38;;;;;;;6.60;3.60;;;25.90;66.70;;;;;;4917833;29;20295;-82
2023/06/11 11:34:04;;;;;;;8.98;2.97;;;26.10;66.20;;;;;;4951645;29;20040;-85
2023/06/11 11:36:31;;;;;;;4.30;3.10;;;26.10;66.30;;;;;;4923130;29;20044;-85
2023/06/11 11:38:57;;;;;;;6.93;3.03;;;26.10;67.70;;;;;;4927604;29;20048;-85
2023/06/11 11:41:22;;;;;;;5.95;3.30;;;26.10;66.00;;;;;;4905681;29;20051;-85
2023/06/11 11:43:49;;;;;;;6.35;2.90;;;26.10;67.20;;;;;;4951728;29;20044;-85
2023/06/11 11:46:23;;;;;;;8.02;3.17;;;26.20;66.40;;;;;;4947957;29;20064;-85
2023/06/11 11:48:54;;;;;;;8.48;3.30;;;26.10;66.30;;;;;;4914138;29;20052;-86
2023/06/11 11:51:20;;;;;;;5.70;3.10;;;26.10;65.00;;;;;;4910795;29;20139;-85
2023/06/11 11:53:49;;;;;;;7.88;3.35;;;26.10;67.20;;;;;;4933615;29;20047;-86
2023/06/11 11:56:14;;;;;;;7.03;3.03;;;26.20;66.20;;;;;;4900050;29;20543;-87
2023/06/11 11:58:44;;;;;;;7.45;3.00;;;26.20;64.30;;;;;;4934691;29;20044;-86
2023/06/11 12:01:21;;;;;;;5.50;3.20;;;26.30;64.60;;;;;;4938419;29;20161;-86
2023/06/11 12:03:56;;;;;;;6.03;2.80;;;26.40;65.20;;;;;;4921612;29;20478;-86
2023/06/11 12:06:23;;;;;;;4.80;3.28;;;26.50;66.10;;;;;;4910653;29;20072;-85
2023/06/11 12:08:49;;;;;;;5.47;2.95;;;26.60;64.80;;;;;;4907888;29;20044;-85
2023/06/11 12:11:17;;;;;;;6.47;3.00;;;26.70;61.50;;;;;;4899808;29;20048;-81
2023/06/11 12:13:43;;;;;;;10.82;4.65;;;26.90;61.90;;;;;;4920619;29;20055;-81
2023/06/11 12:16:09;;;;;;;5.68;3.30;;;27.10;60.40;;;;;;4894318;29;20046;-81
2023/06/11 12:18:35;;;;;;;7.15;3.25;;;27.20;59.20;;;;;;4912009;29;20123;-82
2023/06/11 12:21:01;;;;;;;6.00;3.38;;;27.30;59.80;;;;;;4904190;29;20040;-81
2023/06/11 12:23:27;;;;;;;9.27;2.97;;;27.50;59.50;;;;;;4917895;29;20104;-81
2023/06/11 12:25:52;;;;;;;10.48;3.65;;;27.60;58.70;;;;;;4920930;29;20054;-81
2023/06/11 12:28:21;;;;;;;6.65;3.30;;;27.40;56.90;;;;;;4911662;29;20043;-81
2023/06/11 12:30:47;;;;;;;7.55;3.20;;;27.50;57.70;;;;;;4932649;29;20060;-81
2023/06/11 12:33:15;;;;;;;6.10;3.00;;;27.70;57.80;;;;;;4900019;29;20074;-81
2023/06/11 12:35:43;;;;;;;4.30;2.90;;;27.90;57.20;;;;;;4917221;29;20052;-81
2023/06/11 12:38:10;;;;;;;5.43;3.10;;;28.10;57.90;;;;;;4907030;29;20044;-81
2023/06/11 12:40:36;;;;;;;5.50;2.90;;;28.10;56.60;;;;;;4890214;29;20048;-81
2023/06/11 12:43:08;;;;;;;6.43;3.08;;;28.10;55.80;;;;;;4896552;29;20043;-81
2023/06/11 12:46:01;;;;;;;4.53;3.17;;;28.20;55.10;;;;;;4919985;29;20048;-82